sensor_id;sensor_type;location;lat;lon;timestamp;temperature;humidity
53653;DHT22;39553;52.954;5.932;2022-09-09T00:04:36;13.60;99.90
53653;DHT22;39553;52.954;5.932;2022-09-09T00:07:28;13.70;99.90
53653;DHT22;39553;52.954;5.932;2022-09-09T00:15:24;12.80;99.90
53653;DHT22;39553;52.954;5.932;2022-09-09T00:18:25;14.60;99.90
53653;DHT22;39553;52.954;5.932;2022-09-09T00:21:13;14.70;99.90
53653;DHT22;39553;52.954;5.932;2022-09-09T00:23:53;14.20;99.90
53653;DHT22;39553;52.954;5.932;2022-09-09T00:26:38;12.50;99.90
53653;DHT22;39553;52.954;5.932;2022-09-09T00:31:54;12.50;99.90
53653;DHT22;39553;52.954;5.932;2022-09-09T00:34:24;14.40;99.90
53653;DHT22;39553;52.954;5.932;2022-09-09T00:36:52;14.50;99.90
53653;DHT22;39553;52.954;5.932;2022-09-09T00:44:37;13.50;99.90
53653;DHT22;39553;52.954;5.932;2022-09-09T00:47:16;12.70;99.90
53653;DHT22;39553;52.954;5.932;2022-09-09T00:55:54;13.70;99.90
53653;DHT22;39553;52.954;5.932;2022-09-09T00:58:23;14.50;99.90
53653;DHT22;39553;52.954;5.932;2022-09-09T01:03:38;13.50;99.90
53653;DHT22;39553;52.954;5.932;2022-09-09T01:06:32;14.20;99.90
53653;DHT22;39553;52.954;5.932;2022-09-09T01:09:16;14.50;99.90
53653;DHT22;39553;52.954;5.932;2022-09-09T01:12:41;14.10;99.90
53653;DHT22;39553;52.954;5.932;2022-09-09T01:14:49;13.20;99.90
53653;DHT22;39553;52.954;5.932;2022-09-09T01:25:18;14.40;99.90
53653;DHT22;39553;52.954;5.932;2022-09-09T01:27:48;14.00;99.90
53653;DHT22;39553;52.954;5.932;2022-09-09T01:30:17;13.00;99.90
53653;DHT22;39553;52.954;5.932;2022-09-09T01:32:45;13.50;99.90
53653;DHT22;39553;52.954;5.932;2022-09-09T01:38:08;12.90;99.90
53653;DHT22;39553;52.954;5.932;2022-09-09T01:40:34;12.90;99.90
53653;DHT22;39553;52.954;5.932;2022-09-09T01:43:01;13.40;99.90
53653;DHT22;39553;52.954;5.932;2022-09-09T01:45:27;12.90;99.90
53653;DHT22;39553;52.954;5.932;2022-09-09T01:47:52;14.60;99.90
53653;DHT22;39553;52.954;5.932;2022-09-09T01:50:19;12.90;99.90
53653;DHT22;39553;52.954;5.932;2022-09-09T01:52:49;13.90;99.90
53653;DHT22;39553;52.954;5.932;2022-09-09T01:55:16;15.00;99.90
53653;DHT22;39553;52.954;5.932;2022-09-09T02:00:43;14.70;99.90
53653;DHT22;39553;52.954;5.932;2022-09-09T02:03:28;14.70;99.90
53653;DHT22;39553;52.954;5.932;2022-09-09T02:06:19;14.00;99.90
53653;DHT22;39553;52.954;5.932;2022-09-09T02:08:49;13.20;99.90
53653;DHT22;39553;52.954;5.932;2022-09-09T02:11:20;14.70;99.90
53653;DHT22;39553;52.954;5.932;2022-09-09T02:13:48;14.90;99.90
53653;DHT22;39553;52.954;5.932;2022-09-09T02:19:16;14.50;99.90
53653;DHT22;39553;52.954;5.932;2022-09-09T02:21:50;14.80;99.90
53653;DHT22;39553;52.954;5.932;2022-09-09T02:24:17;12.90;99.90
53653;DHT22;39553;52.954;5.932;2022-09-09T02:26:46;14.90;99.90
53653;DHT22;39553;52.954;5.932;2022-09-09T02:29:16;14.20;99.90
53653;DHT22;39553;52.954;5.932;2022-09-09T02:31:45;14.80;99.90
53653;DHT22;39553;52.954;5.932;2022-09-09T02:34:14;13.00;99.90
53653;DHT22;39553;52.954;5.932;2022-09-09T02:36:43;13.20;99.90
53653;DHT22;39553;52.954;5.932;2022-09-09T02:39:11;13.00;99.90
53653;DHT22;39553;52.954;5.932;2022-09-09T02:41:40;14.40;99.90
53653;DHT22;39553;52.954;5.932;2022-09-09T02:44:14;14.80;99.90
53653;DHT22;39553;52.954;5.932;2022-09-09T02:52:05;13.80;99.90
53653;DHT22;39553;52.954;5.932;2022-09-09T02:54:38;14.80;99.90
53653;DHT22;39553;52.954;5.932;2022-09-09T02:57:23;14.80;99.90
53653;DHT22;39553;52.954;5.932;2022-09-09T02:59:50;13.40;99.90
53653;DHT22;39553;52.954;5.932;2022-09-09T03:02:17;13.00;99.90
53653;DHT22;39553;52.954;5.932;2022-09-09T03:04:44;14.90;99.90
53653;DHT22;39553;52.954;5.932;2022-09-09T03:07:13;14.90;99.90
53653;DHT22;39553;52.954;5.932;2022-09-09T03:09:38;13.00;99.90
53653;DHT22;39553;52.954;5.932;2022-09-09T03:12:04;13.10;99.90
53653;DHT22;39553;52.954;5.932;2022-09-09T03:14:30;14.70;99.90
53653;DHT22;39553;52.954;5.932;2022-09-09T03:16:56;13.40;99.90
53653;DHT22;39553;52.954;5.932;2022-09-09T03:19:26;13.10;99.90
53653;DHT22;39553;52.954;5.932;2022-09-09T03:21:53;14.90;99.90
53653;DHT22;39553;52.954;5.932;2022-09-09T03:24:19;13.10;99.90
53653;DHT22;39553;52.954;5.932;2022-09-09T03:26:45;14.20;99.90
53653;DHT22;39553;52.954;5.932;2022-09-09T03:29:14;14.80;99.90
53653;DHT22;39553;52.954;5.932;2022-09-09T03:31:40;13.40;99.90
53653;DHT22;39553;52.954;5.932;2022-09-09T03:34:06;13.30;99.90
53653;DHT22;39553;52.954;5.932;2022-09-09T03:36:33;14.70;99.90
53653;DHT22;39553;52.954;5.932;2022-09-09T03:38:59;14.90;99.90
53653;DHT22;39553;52.954;5.932;2022-09-09T03:41:25;13.20;99.90
53653;DHT22;39553;52.954;5.932;2022-09-09T03:43:52;13.70;99.90
53653;DHT22;39553;52.954;5.932;2022-09-09T03:46:19;13.90;99.90
53653;DHT22;39553;52.954;5.932;2022-09-09T03:48:45;14.20;99.90
53653;DHT22;39553;52.954;5.932;2022-09-09T03:51:11;13.60;99.90
53653;DHT22;39553;52.954;5.932;2022-09-09T03:53:37;13.20;99.90
53653;DHT22;39553;52.954;5.932;2022-09-09T03:56:04;13.90;99.90
53653;DHT22;39553;52.954;5.932;2022-09-09T03:58:33;13.30;99.90
53653;DHT22;39553;52.954;5.932;2022-09-09T04:01:00;14.70;99.90
53653;DHT22;39553;52.954;5.932;2022-09-09T04:03:26;13.60;99.90
53653;DHT22;39553;52.954;5.932;2022-09-09T04:05:52;14.30;99.90
53653;DHT22;39553;52.954;5.932;2022-09-09T04:08:19;14.30;99.90
53653;DHT22;39553;52.954;5.932;2022-09-09T04:10:47;13.30;99.90
53653;DHT22;39553;52.954;5.932;2022-09-09T04:13:14;13.30;99.90
53653;DHT22;39553;52.954;5.932;2022-09-09T04:15:42;14.00;99.90
53653;DHT22;39553;52.954;5.932;2022-09-09T04:18:09;14.60;99.90
53653;DHT22;39553;52.954;5.932;2022-09-09T04:20:34;13.40;99.90
53653;DHT22;39553;52.954;5.932;2022-09-09T04:23:01;13.30;99.90
53653;DHT22;39553;52.954;5.932;2022-09-09T04:25:27;14.80;99.90
53653;DHT22;39553;52.954;5.932;2022-09-09T04:27:56;13.30;99.90
53653;DHT22;39553;52.954;5.932;2022-09-09T04:30:22;14.60;99.90
53653;DHT22;39553;52.954;5.932;2022-09-09T04:32:48;13.30;99.90
53653;DHT22;39553;52.954;5.932;2022-09-09T04:35:14;13.40;99.90
53653;DHT22;39553;52.954;5.932;2022-09-09T04:37:40;14.60;99.90
53653;DHT22;39553;52.954;5.932;2022-09-09T04:40:07;14.60;99.90
53653;DHT22;39553;52.954;5.932;2022-09-09T04:42:39;14.60;99.90
53653;DHT22;39553;52.954;5.932;2022-09-09T04:45:08;14.40;99.90
53653;DHT22;39553;52.954;5.932;2022-09-09T04:47:36;13.30;99.90
53653;DHT22;39553;52.954;5.932;2022-09-09T04:50:02;13.30;99.90
53653;DHT22;39553;52.954;5.932;2022-09-09T04:52:28;14.10;99.90
53653;DHT22;39553;52.954;5.932;2022-09-09T04:54:54;14.00;99.90
53653;DHT22;39553;52.954;5.932;2022-09-09T04:57:20;13.30;99.90
53653;DHT22;39553;52.954;5.932;2022-09-09T04:59:45;13.50;99.90
53653;DHT22;39553;52.954;5.932;2022-09-09T05:02:11;14.00;99.90
53653;DHT22;39553;52.954;5.932;2022-09-09T05:04:37;14.50;99.90
53653;DHT22;39553;52.954;5.932;2022-09-09T05:07:03;13.90;99.90
53653;DHT22;39553;52.954;5.932;2022-09-09T05:09:28;14.10;99.90
53653;DHT22;39553;52.954;5.932;2022-09-09T05:11:55;14.40;99.90
53653;DHT22;39553;52.954;5.932;2022-09-09T05:14:21;14.20;99.90
53653;DHT22;39553;52.954;5.932;2022-09-09T05:16:48;13.90;99.90
53653;DHT22;39553;52.954;5.932;2022-09-09T05:19:15;14.20;99.90
53653;DHT22;39553;52.954;5.932;2022-09-09T05:21:41;14.40;99.90
53653;DHT22;39553;52.954;5.932;2022-09-09T05:24:07;13.60;99.90
53653;DHT22;39553;52.954;5.932;2022-09-09T05:26:33;13.30;99.90
53653;DHT22;39553;52.954;5.932;2022-09-09T05:28:58;13.60;99.90
53653;DHT22;39553;52.954;5.932;2022-09-09T05:31:26;13.60;99.90
53653;DHT22;39553;52.954;5.932;2022-09-09T05:33:54;13.60;99.90
53653;DHT22;39553;52.954;5.932;2022-09-09T05:36:21;13.70;99.90
53653;DHT22;39553;52.954;5.932;2022-09-09T05:38:47;13.50;99.90
53653;DHT22;39553;52.954;5.932;2022-09-09T05:41:14;14.40;99.90
53653;DHT22;39553;52.954;5.932;2022-09-09T05:43:41;14.00;99.90
53653;DHT22;39553;52.954;5.932;2022-09-09T05:46:19;13.50;99.90
53653;DHT22;39553;52.954;5.932;2022-09-09T05:48:46;14.10;99.90
53653;DHT22;39553;52.954;5.932;2022-09-09T05:51:14;14.40;99.90
53653;DHT22;39553;52.954;5.932;2022-09-09T05:53:44;14.20;99.90
53653;DHT22;39553;52.954;5.932;2022-09-09T05:56:18;13.50;99.90
53653;DHT22;39553;52.954;5.932;2022-09-09T05:58:45;13.80;99.90
53653;DHT22;39553;52.954;5.932;2022-09-09T06:01:18;13.80;99.90
53653;DHT22;39553;52.954;5.932;2022-09-09T06:03:45;14.20;99.90
53653;DHT22;39553;52.954;5.932;2022-09-09T06:06:14;14.10;99.90
53653;DHT22;39553;52.954;5.932;2022-09-09T06:08:42;14.30;99.90
53653;DHT22;39553;52.954;5.932;2022-09-09T06:11:15;13.80;99.90
53653;DHT22;39553;52.954;5.932;2022-09-09T06:13:41;13.70;99.90
53653;DHT22;39553;52.954;5.932;2022-09-09T06:16:17;14.30;99.90
53653;DHT22;39553;52.954;5.932;2022-09-09T06:18:44;14.00;99.90
53653;DHT22;39553;52.954;5.932;2022-09-09T06:21:15;14.40;99.90
53653;DHT22;39553;52.954;5.932;2022-09-09T06:23:41;14.40;99.90
53653;DHT22;39553;52.954;5.932;2022-09-09T06:26:28;14.00;99.90
53653;DHT22;39553;52.954;5.932;2022-09-09T06:28:55;13.70;99.90
53653;DHT22;39553;52.954;5.932;2022-09-09T06:31:24;14.50;99.90
53653;DHT22;39553;52.954;5.932;2022-09-09T06:33:51;13.90;99.90
53653;DHT22;39553;52.954;5.932;2022-09-09T06:36:19;14.30;99.90
53653;DHT22;39553;52.954;5.932;2022-09-09T06:38:46;14.60;99.90
53653;DHT22;39553;52.954;5.932;2022-09-09T06:41:13;14.30;99.90
53653;DHT22;39553;52.954;5.932;2022-09-09T06:43:40;14.60;99.90
53653;DHT22;39553;52.954;5.932;2022-09-09T06:48:33;14.40;99.90
53653;DHT22;39553;52.954;5.932;2022-09-09T06:51:05;14.80;99.90
53653;DHT22;39553;52.954;5.932;2022-09-09T06:53:32;14.50;99.90
53653;DHT22;39553;52.954;5.932;2022-09-09T06:56:24;14.20;99.90
53653;DHT22;39553;52.954;5.932;2022-09-09T06:58:50;14.60;99.90
53653;DHT22;39553;52.954;5.932;2022-09-09T07:01:22;14.70;99.90
53653;DHT22;39553;52.954;5.932;2022-09-09T07:03:53;14.30;99.90
53653;DHT22;39553;52.954;5.932;2022-09-09T07:06:22;14.60;99.90
53653;DHT22;39553;52.954;5.932;2022-09-09T07:08:53;14.80;99.90
53653;DHT22;39553;52.954;5.932;2022-09-09T07:11:20;14.40;99.90
53653;DHT22;39553;52.954;5.932;2022-09-09T07:13:48;14.80;99.90
53653;DHT22;39553;52.954;5.932;2022-09-09T07:16:16;14.50;99.90
53653;DHT22;39553;52.954;5.932;2022-09-09T07:18:43;14.70;99.90
53653;DHT22;39553;52.954;5.932;2022-09-09T07:21:13;14.90;99.90
53653;DHT22;39553;52.954;5.932;2022-09-09T07:23:40;14.70;99.90
53653;DHT22;39553;52.954;5.932;2022-09-09T07:26:10;14.80;99.90
53653;DHT22;39553;52.954;5.932;2022-09-09T07:28:37;15.10;99.90
53653;DHT22;39553;52.954;5.932;2022-09-09T07:31:04;14.90;99.90
53653;DHT22;39553;52.954;5.932;2022-09-09T07:33:32;15.30;99.90
53653;DHT22;39553;52.954;5.932;2022-09-09T07:36:10;15.10;99.90
53653;DHT22;39553;52.954;5.932;2022-09-09T07:41:10;15.50;99.90
53653;DHT22;39553;52.954;5.932;2022-09-09T07:43:43;15.70;99.90
53653;DHT22;39553;52.954;5.932;2022-09-09T07:46:11;15.50;99.90
53653;DHT22;39553;52.954;5.932;2022-09-09T07:48:38;15.70;99.90
53653;DHT22;39553;52.954;5.932;2022-09-09T07:51:10;15.60;99.90
53653;DHT22;39553;52.954;5.932;2022-09-09T07:53:40;16.00;99.90
53653;DHT22;39553;52.954;5.932;2022-09-09T07:56:12;16.10;99.90
53653;DHT22;39553;52.954;5.932;2022-09-09T07:58:40;16.00;99.90
53653;DHT22;39553;52.954;5.932;2022-09-09T08:01:18;16.00;99.90
53653;DHT22;39553;52.954;5.932;2022-09-09T08:03:45;16.30;99.90
53653;DHT22;39553;52.954;5.932;2022-09-09T08:06:12;16.30;99.90
53653;DHT22;39553;52.954;5.932;2022-09-09T08:08:40;16.40;99.90
53653;DHT22;39553;52.954;5.932;2022-09-09T08:11:11;16.60;99.90
53653;DHT22;39553;52.954;5.932;2022-09-09T08:13:38;16.80;99.90
53653;DHT22;39553;52.954;5.932;2022-09-09T08:16:13;16.80;99.90
53653;DHT22;39553;52.954;5.932;2022-09-09T08:18:39;17.00;99.90
53653;DHT22;39553;52.954;5.932;2022-09-09T08:21:14;17.00;99.90
53653;DHT22;39553;52.954;5.932;2022-09-09T08:23:44;17.20;99.90
53653;DHT22;39553;52.954;5.932;2022-09-09T08:26:19;17.30;99.90
53653;DHT22;39553;52.954;5.932;2022-09-09T08:28:52;17.70;99.90
53653;DHT22;39553;52.954;5.932;2022-09-09T08:31:39;17.60;99.90
53653;DHT22;39553;52.954;5.932;2022-09-09T08:34:06;17.80;99.90
53653;DHT22;39553;52.954;5.932;2022-09-09T08:36:41;17.70;99.90
53653;DHT22;39553;52.954;5.932;2022-09-09T08:39:09;17.60;99.90
53653;DHT22;39553;52.954;5.932;2022-09-09T08:50:25;17.00;99.90
53653;DHT22;39553;52.954;5.932;2022-09-09T08:52:57;17.50;99.90
53653;DHT22;39553;52.954;5.932;2022-09-09T08:57:57;17.60;99.90
53653;DHT22;39553;52.954;5.932;2022-09-09T09:00:31;17.70;99.90
53653;DHT22;39553;52.954;5.932;2022-09-09T09:06:21;17.60;99.90
53653;DHT22;39553;52.954;5.932;2022-09-09T09:11:52;17.40;99.90
53653;DHT22;39553;52.954;5.932;2022-09-09T09:14:23;17.50;99.90
53653;DHT22;39553;52.954;5.932;2022-09-09T09:16:58;17.60;99.90
53653;DHT22;39553;52.954;5.932;2022-09-09T09:19:24;17.60;99.90
53653;DHT22;39553;52.954;5.932;2022-09-09T09:22:23;18.00;99.90
53653;DHT22;39553;52.954;5.932;2022-09-09T09:24:59;17.70;99.90
53653;DHT22;39553;52.954;5.932;2022-09-09T09:27:34;17.60;99.90
53653;DHT22;39553;52.954;5.932;2022-09-09T09:30:22;17.60;99.90
53653;DHT22;39553;52.954;5.932;2022-09-09T09:35:27;18.30;99.90
53653;DHT22;39553;52.954;5.932;2022-09-09T09:37:52;18.70;99.90
53653;DHT22;39553;52.954;5.932;2022-09-09T09:40:20;18.50;99.90
53653;DHT22;39553;52.954;5.932;2022-09-09T09:42:56;18.30;99.90
53653;DHT22;39553;52.954;5.932;2022-09-09T09:45:41;18.10;99.90
53653;DHT22;39553;52.954;5.932;2022-09-09T09:48:12;18.00;99.90
53653;DHT22;39553;52.954;5.932;2022-09-09T09:50:49;17.90;99.90
53653;DHT22;39553;52.954;5.932;2022-09-09T09:53:25;17.80;99.90
53653;DHT22;39553;52.954;5.932;2022-09-09T09:56:04;17.90;99.90
53653;DHT22;39553;52.954;5.932;2022-09-09T09:58:51;17.90;99.90
53653;DHT22;39553;52.954;5.932;2022-09-09T10:01:29;18.00;99.90
53653;DHT22;39553;52.954;5.932;2022-09-09T10:06:39;18.00;99.90
53653;DHT22;39553;52.954;5.932;2022-09-09T10:09:30;18.10;99.90
53653;DHT22;39553;52.954;5.932;2022-09-09T10:36:49;17.70;99.90
53653;DHT22;39553;52.954;5.932;2022-09-09T10:39:33;17.70;99.90
53653;DHT22;39553;52.954;5.932;2022-09-09T10:42:09;17.80;99.90
53653;DHT22;39553;52.954;5.932;2022-09-09T10:50:50;18.00;99.90
53653;DHT22;39553;52.954;5.932;2022-09-09T10:56:12;18.20;99.90
53653;DHT22;39553;52.954;5.932;2022-09-09T10:58:51;18.30;99.90
53653;DHT22;39553;52.954;5.932;2022-09-09T11:03:58;18.30;99.90
53653;DHT22;39553;52.954;5.932;2022-09-09T11:06:34;18.20;99.90
53653;DHT22;39553;52.954;5.932;2022-09-09T11:09:02;18.10;99.90
53653;DHT22;39553;52.954;5.932;2022-09-09T11:11:42;18.10;99.90
53653;DHT22;39553;52.954;5.932;2022-09-09T11:14:36;18.00;99.90
53653;DHT22;39553;52.954;5.932;2022-09-09T11:17:25;17.80;99.90
53653;DHT22;39553;52.954;5.932;2022-09-09T11:19:52;17.80;99.90
53653;DHT22;39553;52.954;5.932;2022-09-09T11:22:39;18.00;99.90
53653;DHT22;39553;52.954;5.932;2022-09-09T11:25:39;18.40;99.90
53653;DHT22;39553;52.954;5.932;2022-09-09T11:31:10;18.90;99.90
53653;DHT22;39553;52.954;5.932;2022-09-09T11:34:24;18.90;99.90
53653;DHT22;39553;52.954;5.932;2022-09-09T11:40:24;19.00;99.90
53653;DHT22;39553;52.954;5.932;2022-09-09T11:43:09;19.00;99.90
53653;DHT22;39553;52.954;5.932;2022-09-09T11:45:37;18.80;99.90
53653;DHT22;39553;52.954;5.932;2022-09-09T11:48:04;18.70;99.90
53653;DHT22;39553;52.954;5.932;2022-09-09T11:50:35;18.90;99.90
53653;DHT22;39553;52.954;5.932;2022-09-09T11:53:21;19.10;99.90
53653;DHT22;39553;52.954;5.932;2022-09-09T11:56:00;19.20;99.90
53653;DHT22;39553;52.954;5.932;2022-09-09T11:58:27;19.30;99.90
53653;DHT22;39553;52.954;5.932;2022-09-09T12:00:58;19.30;99.90
53653;DHT22;39553;52.954;5.932;2022-09-09T12:08:56;19.10;99.90
53653;DHT22;39553;52.954;5.932;2022-09-09T12:11:30;19.10;99.90
53653;DHT22;39553;52.954;5.932;2022-09-09T12:13:58;19.00;99.90
53653;DHT22;39553;52.954;5.932;2022-09-09T12:16:33;18.90;99.90
53653;DHT22;39553;52.954;5.932;2022-09-09T12:22:06;18.80;99.90
53653;DHT22;39553;52.954;5.932;2022-09-09T12:27:27;19.20;99.90
53653;DHT22;39553;52.954;5.932;2022-09-09T12:30:14;19.30;99.90
53653;DHT22;39553;52.954;5.932;2022-09-09T12:32:40;19.40;99.90
53653;DHT22;39553;52.954;5.932;2022-09-09T12:35:32;19.40;99.90
53653;DHT22;39553;52.954;5.932;2022-09-09T12:38:01;19.30;99.90
53653;DHT22;39553;52.954;5.932;2022-09-09T12:40:32;19.20;99.90
53653;DHT22;39553;52.954;5.932;2022-09-09T12:43:01;19.20;99.90
53653;DHT22;39553;52.954;5.932;2022-09-09T12:45:32;19.40;99.90
53653;DHT22;39553;52.954;5.932;2022-09-09T12:48:11;19.60;99.90
53653;DHT22;39553;52.954;5.932;2022-09-09T12:50:49;19.60;99.90
53653;DHT22;39553;52.954;5.932;2022-09-09T12:53:23;19.60;99.90
53653;DHT22;39553;52.954;5.932;2022-09-09T12:56:00;19.50;99.90
53653;DHT22;39553;52.954;5.932;2022-09-09T12:58:29;19.50;99.90
53653;DHT22;39553;52.954;5.932;2022-09-09T13:00:59;19.30;99.90
53653;DHT22;39553;52.954;5.932;2022-09-09T13:03:26;19.00;99.90
53653;DHT22;39553;52.954;5.932;2022-09-09T13:05:53;18.90;99.90
53653;DHT22;39553;52.954;5.932;2022-09-09T13:08:20;18.60;99.90
53653;DHT22;39553;52.954;5.932;2022-09-09T13:11:01;18.10;99.90
53653;DHT22;39553;52.954;5.932;2022-09-09T13:13:34;17.90;99.90
53653;DHT22;39553;52.954;5.932;2022-09-09T13:16:02;17.80;99.90
53653;DHT22;39553;52.954;5.932;2022-09-09T13:18:32;17.90;99.90
53653;DHT22;39553;52.954;5.932;2022-09-09T13:20:58;18.00;99.90
53653;DHT22;39553;52.954;5.932;2022-09-09T13:23:30;18.10;99.90
53653;DHT22;39553;52.954;5.932;2022-09-09T13:26:18;18.20;99.90
53653;DHT22;39553;52.954;5.932;2022-09-09T13:28:47;18.40;99.90
53653;DHT22;39553;52.954;5.932;2022-09-09T13:31:24;18.50;99.90
53653;DHT22;39553;52.954;5.932;2022-09-09T13:33:53;18.60;99.90
53653;DHT22;39553;52.954;5.932;2022-09-09T13:36:31;18.80;99.90
53653;DHT22;39553;52.954;5.932;2022-09-09T13:38:59;19.00;99.90
53653;DHT22;39553;52.954;5.932;2022-09-09T13:41:30;19.20;99.90
53653;DHT22;39553;52.954;5.932;2022-09-09T13:43:56;19.20;99.90
53653;DHT22;39553;52.954;5.932;2022-09-09T13:46:37;19.20;99.90
53653;DHT22;39553;52.954;5.932;2022-09-09T13:51:38;19.20;99.90
53653;DHT22;39553;52.954;5.932;2022-09-09T13:54:06;19.20;99.90
53653;DHT22;39553;52.954;5.932;2022-09-09T13:56:36;19.10;99.90
53653;DHT22;39553;52.954;5.932;2022-09-09T13:59:04;19.10;99.90
53653;DHT22;39553;52.954;5.932;2022-09-09T14:01:31;19.20;99.90
53653;DHT22;39553;52.954;5.932;2022-09-09T14:03:56;19.10;99.90
53653;DHT22;39553;52.954;5.932;2022-09-09T14:06:23;19.10;99.90
53653;DHT22;39553;52.954;5.932;2022-09-09T14:08:50;19.00;99.90
53653;DHT22;39553;52.954;5.932;2022-09-09T14:11:17;19.00;99.90
53653;DHT22;39553;52.954;5.932;2022-09-09T14:13:42;19.10;99.90
53653;DHT22;39553;52.954;5.932;2022-09-09T14:16:08;19.10;99.90
53653;DHT22;39553;52.954;5.932;2022-09-09T14:18:35;19.20;99.90
53653;DHT22;39553;52.954;5.932;2022-09-09T14:21:01;19.10;99.90
53653;DHT22;39553;52.954;5.932;2022-09-09T14:23:27;19.00;99.90
53653;DHT22;39553;52.954;5.932;2022-09-09T14:25:54;18.80;99.90
53653;DHT22;39553;52.954;5.932;2022-09-09T14:28:20;18.70;99.90
53653;DHT22;39553;52.954;5.932;2022-09-09T14:30:46;18.60;99.90
53653;DHT22;39553;52.954;5.932;2022-09-09T14:33:14;18.50;99.90
53653;DHT22;39553;52.954;5.932;2022-09-09T14:35:39;18.50;99.90
53653;DHT22;39553;52.954;5.932;2022-09-09T14:38:07;18.30;99.90
53653;DHT22;39553;52.954;5.932;2022-09-09T14:40:37;18.20;99.90
53653;DHT22;39553;52.954;5.932;2022-09-09T14:43:04;18.00;99.90
53653;DHT22;39553;52.954;5.932;2022-09-09T14:45:31;17.90;99.90
53653;DHT22;39553;52.954;5.932;2022-09-09T14:47:57;17.60;99.90
53653;DHT22;39553;52.954;5.932;2022-09-09T14:50:23;17.40;99.90
53653;DHT22;39553;52.954;5.932;2022-09-09T14:52:49;17.30;99.90
53653;DHT22;39553;52.954;5.932;2022-09-09T14:55:16;17.00;99.90
53653;DHT22;39553;52.954;5.932;2022-09-09T14:57:42;17.00;99.90
53653;DHT22;39553;52.954;5.932;2022-09-09T15:00:09;16.90;99.90
53653;DHT22;39553;52.954;5.932;2022-09-09T15:02:36;16.90;99.90
53653;DHT22;39553;52.954;5.932;2022-09-09T15:05:02;16.90;99.90
53653;DHT22;39553;52.954;5.932;2022-09-09T15:07:28;16.90;99.90
53653;DHT22;39553;52.954;5.932;2022-09-09T15:09:54;16.90;99.90
53653;DHT22;39553;52.954;5.932;2022-09-09T15:12:20;17.00;99.90
53653;DHT22;39553;52.954;5.932;2022-09-09T15:14:47;17.10;99.90
53653;DHT22;39553;52.954;5.932;2022-09-09T15:17:13;17.10;99.90
53653;DHT22;39553;52.954;5.932;2022-09-09T15:19:39;17.10;99.90
53653;DHT22;39553;52.954;5.932;2022-09-09T15:22:05;17.20;99.90
53653;DHT22;39553;52.954;5.932;2022-09-09T15:24:32;17.20;99.90
53653;DHT22;39553;52.954;5.932;2022-09-09T15:26:59;17.30;99.90
53653;DHT22;39553;52.954;5.932;2022-09-09T15:29:25;17.40;99.90
53653;DHT22;39553;52.954;5.932;2022-09-09T15:31:51;17.40;99.90
53653;DHT22;39553;52.954;5.932;2022-09-09T15:34:16;17.60;99.90
53653;DHT22;39553;52.954;5.932;2022-09-09T15:36:44;17.70;99.90
53653;DHT22;39553;52.954;5.932;2022-09-09T15:39:15;17.80;99.90
53653;DHT22;39553;52.954;5.932;2022-09-09T15:41:43;17.90;99.90
53653;DHT22;39553;52.954;5.932;2022-09-09T15:44:10;18.00;99.90
53653;DHT22;39553;52.954;5.932;2022-09-09T15:46:43;18.00;99.90
53653;DHT22;39553;52.954;5.932;2022-09-09T15:49:20;18.10;99.90
53653;DHT22;39553;52.954;5.932;2022-09-09T15:51:53;18.00;99.90
53653;DHT22;39553;52.954;5.932;2022-09-09T15:54:20;18.10;99.90
53653;DHT22;39553;52.954;5.932;2022-09-09T15:56:57;18.10;99.90
53653;DHT22;39553;52.954;5.932;2022-09-09T15:59:24;18.10;99.90
53653;DHT22;39553;52.954;5.932;2022-09-09T16:01:50;18.20;99.90
53653;DHT22;39553;52.954;5.932;2022-09-09T16:04:19;18.00;99.90
53653;DHT22;39553;52.954;5.932;2022-09-09T16:06:55;18.20;99.90
53653;DHT22;39553;52.954;5.932;2022-09-09T16:09:23;18.20;99.90
53653;DHT22;39553;52.954;5.932;2022-09-09T16:11:48;18.20;99.90
53653;DHT22;39553;52.954;5.932;2022-09-09T16:14:15;18.20;99.90
53653;DHT22;39553;52.954;5.932;2022-09-09T16:16:41;18.30;99.90
53653;DHT22;39553;52.954;5.932;2022-09-09T16:19:10;18.30;99.90
53653;DHT22;39553;52.954;5.932;2022-09-09T16:21:40;18.30;99.90
53653;DHT22;39553;52.954;5.932;2022-09-09T16:24:08;18.30;99.90
53653;DHT22;39553;52.954;5.932;2022-09-09T16:26:36;18.20;99.90
53653;DHT22;39553;52.954;5.932;2022-09-09T16:29:04;18.10;99.90
53653;DHT22;39553;52.954;5.932;2022-09-09T16:31:30;18.10;99.90
53653;DHT22;39553;52.954;5.932;2022-09-09T16:33:57;18.10;99.90
53653;DHT22;39553;52.954;5.932;2022-09-09T16:36:28;18.10;99.90
53653;DHT22;39553;52.954;5.932;2022-09-09T16:38:57;18.00;99.90
53653;DHT22;39553;52.954;5.932;2022-09-09T16:41:24;18.00;99.90
53653;DHT22;39553;52.954;5.932;2022-09-09T16:43:57;18.00;99.90
53653;DHT22;39553;52.954;5.932;2022-09-09T16:46:25;17.90;99.90
53653;DHT22;39553;52.954;5.932;2022-09-09T16:48:52;17.90;99.90
53653;DHT22;39553;52.954;5.932;2022-09-09T16:51:22;17.90;99.90
53653;DHT22;39553;52.954;5.932;2022-09-09T16:53:51;17.90;99.90
53653;DHT22;39553;52.954;5.932;2022-09-09T16:56:20;17.80;99.90
53653;DHT22;39553;52.954;5.932;2022-09-09T16:58:54;17.80;99.90
53653;DHT22;39553;52.954;5.932;2022-09-09T17:01:28;17.70;99.90
53653;DHT22;39553;52.954;5.932;2022-09-09T17:03:58;17.60;99.90
53653;DHT22;39553;52.954;5.932;2022-09-09T17:06:24;17.60;99.90
53653;DHT22;39553;52.954;5.932;2022-09-09T17:08:54;17.60;99.90
53653;DHT22;39553;52.954;5.932;2022-09-09T17:11:20;17.60;99.90
53653;DHT22;39553;52.954;5.932;2022-09-09T17:13:47;17.60;99.90
53653;DHT22;39553;52.954;5.932;2022-09-09T17:16:14;17.60;99.90
53653;DHT22;39553;52.954;5.932;2022-09-09T17:18:40;17.50;99.90
53653;DHT22;39553;52.954;5.932;2022-09-09T17:21:08;17.60;99.90
53653;DHT22;39553;52.954;5.932;2022-09-09T17:23:34;17.50;99.90
53653;DHT22;39553;52.954;5.932;2022-09-09T17:26:05;17.50;99.90
53653;DHT22;39553;52.954;5.932;2022-09-09T17:28:34;17.50;99.90
53653;DHT22;39553;52.954;5.932;2022-09-09T17:31:00;17.50;99.90
53653;DHT22;39553;52.954;5.932;2022-09-09T17:33:29;17.50;99.90
53653;DHT22;39553;52.954;5.932;2022-09-09T17:35:58;17.50;99.90
53653;DHT22;39553;52.954;5.932;2022-09-09T17:38:25;17.50;99.90
53653;DHT22;39553;52.954;5.932;2022-09-09T17:43:36;17.40;99.90
53653;DHT22;39553;52.954;5.932;2022-09-09T17:46:13;17.40;99.90
53653;DHT22;39553;52.954;5.932;2022-09-09T17:48:40;17.40;99.90
53653;DHT22;39553;52.954;5.932;2022-09-09T17:51:08;17.30;99.90
53653;DHT22;39553;52.954;5.932;2022-09-09T17:53:39;17.30;99.90
53653;DHT22;39553;52.954;5.932;2022-09-09T17:56:07;17.30;99.90
53653;DHT22;39553;52.954;5.932;2022-09-09T17:58:33;17.20;99.90
53653;DHT22;39553;52.954;5.932;2022-09-09T18:03:45;17.10;99.90
53653;DHT22;39553;52.954;5.932;2022-09-09T18:06:17;17.10;99.90
53653;DHT22;39553;52.954;5.932;2022-09-09T18:08:52;17.10;99.90